Time;durP1;ratioP1;P1;durP2;ratioP2;P2;SDS_P1;SDS_P2;PMS_P1;PMS_P2;Temp;Humidity;BMP_temperature;BMP_pressure;BME280_temperature;BME280_humidity;BME280_pressure;Samples;Min_cycle;Max_cycle;Signal;HPM_P1;HPM_P2
2022/08/29 00:02:12;;;;;;;8.43;1.50;;;;;;;;;;4955570;28;20274;-78
2022/08/29 00:04:39;;;;;;;5.23;2.07;;;;;;;;;;4955123;28;20301;-77
2022/08/29 00:07:06;;;;;;;4.63;1.83;;;;;;;;;;4949583;28;20278;-78
2022/08/29 00:09:33;;;;;;;6.33;2.00;;;;;;;;;;4949515;29;20293;-77
2022/08/29 00:12:01;;;;;;;5.43;1.60;;;;;;;;;;4954096;28;20628;-78
2022/08/29 00:14:29;;;;;;;6.40;1.87;;;;;;;;;;4955468;28;20265;-78
2022/08/29 00:16:56;;;;;;;9.23;2.07;;;;;;;;;;4947773;28;20233;-77
2022/08/29 00:19:28;;;;;;;5.93;1.83;;;;;;;;;;4953730;28;20234;-79
2022/08/29 00:21:55;;;;;;;4.53;1.77;;;;;;;;;;4951709;28;20289;-79
2022/08/29 00:24:22;;;;;;;9.03;1.80;;;;;;;;;;4959911;28;20309;-79
2022/08/29 00:26:49;;;;;;;3.73;1.60;;;;;;;;;;4955292;28;20233;-79
2022/08/29 00:29:16;;;;;;;4.10;1.40;;;;;;;;;;4951349;28;20637;-78
2022/08/29 00:31:44;;;;;;;3.47;1.50;;;;;;;;;;4945156;28;20234;-79
2022/08/29 00:34:11;;;;;;;3.83;1.77;;;;;;;;;;4952345;28;20295;-79
2022/08/29 00:36:42;;;;;;;7.03;1.87;;;;;;;;;;4948191;28;20305;-79
2022/08/29 00:39:09;;;;;;;5.07;1.80;;;;;;;;;;4951511;28;20207;-79
2022/08/29 00:41:36;;;;;;;7.77;1.80;;;;;;;;;;4951440;28;20289;-77
2022/08/29 00:44:04;;;;;;;5.33;1.70;;;;;;;;;;4950487;28;20206;-78
2022/08/29 00:46:50;;;;;;;4.83;1.90;;;;;;;;;;4950097;28;20258;-77
2022/08/29 00:49:23;;;;;;;3.47;1.60;;;;;;;;;;4951597;28;20242;-77
2022/08/29 00:51:52;;;;;;;4.60;1.80;;;;;;;;;;4952802;28;20293;-78
2022/08/29 00:54:19;;;;;;;7.20;1.77;;;;;;;;;;4948797;28;20261;-78
2022/08/29 00:56:47;;;;;;;2.90;1.53;;;;;;;;;;4949922;28;20222;-78
2022/08/29 00:59:15;;;;;;;6.17;1.70;;;;;;;;;;4948963;28;20223;-79
2022/08/29 01:01:43;;;;;;;5.23;1.90;;;;;;;;;;4951392;28;20233;-78
2022/08/29 01:04:10;;;;;;;5.13;1.90;;;;;;;;;;4950811;28;20242;-78
2022/08/29 01:06:38;;;;;;;3.93;1.77;;;;;;;;;;4956596;28;20234;-77
2022/08/29 01:09:07;;;;;;;6.70;1.90;;;;;;;;;;4957232;28;20234;-78
2022/08/29 01:14:20;;;;;;;3.03;1.60;;;;;;;;;;4955855;28;20339;-79
2022/08/29 01:16:48;;;;;;;7.30;1.80;;;;;;;;;;4957554;28;20253;-78
2022/08/29 01:19:25;;;;;;;5.37;1.60;;;;;;;;;;4952350;28;20271;-80
2022/08/29 01:21:56;;;;;;;6.97;1.70;;;;;;;;;;4947917;28;20217;-79
2022/08/29 01:24:36;;;;;;;5.50;1.87;;;;;;;;;;4954983;28;20591;-79
2022/08/29 01:27:03;;;;;;;5.10;2.00;;;;;;;;;;4954327;28;20328;-79
2022/08/29 01:29:30;;;;;;;6.17;1.90;;;;;;;;;;4954320;28;20233;-79
2022/08/29 01:31:57;;;;;;;10.50;1.67;;;;;;;;;;4954328;28;20301;-79
2022/08/29 01:34:26;;;;;;;4.10;2.10;;;;;;;;;;4952686;28;20198;-78
2022/08/29 01:36:55;;;;;;;8.90;1.97;;;;;;;;;;4956048;28;20230;-78
2022/08/29 01:39:25;;;;;;;6.13;2.20;;;;;;;;;;4956501;28;20233;-79
2022/08/29 01:41:55;;;;;;;6.73;1.87;;;;;;;;;;4954295;28;20345;-77
2022/08/29 01:44:24;;;;;;;11.80;2.07;;;;;;;;;;4957871;28;20237;-79
2022/08/29 01:46:54;;;;;;;5.40;2.17;;;;;;;;;;4956136;28;20230;-79
2022/08/29 01:49:22;;;;;;;8.07;2.50;;;;;;;;;;4958420;28;20221;-77
2022/08/29 01:51:49;;;;;;;6.60;2.37;;;;;;;;;;4958566;28;20226;-79
2022/08/29 01:54:17;;;;;;;9.53;2.20;;;;;;;;;;4963137;28;20269;-79
2022/08/29 01:56:45;;;;;;;7.37;2.10;;;;;;;;;;4963475;28;20232;-78
2022/08/29 01:59:15;;;;;;;5.83;1.90;;;;;;;;;;4969138;28;20211;-79
2022/08/29 02:01:44;;;;;;;4.93;1.70;;;;;;;;;;4955262;28;20211;-79
2022/08/29 02:04:11;;;;;;;4.80;1.70;;;;;;;;;;4955575;28;20206;-78
2022/08/29 02:06:39;;;;;;;7.23;2.07;;;;;;;;;;4953193;28;20317;-78
2022/08/29 02:09:06;;;;;;;6.93;2.47;;;;;;;;;;4951153;28;20688;-78
2022/08/29 02:11:35;;;;;;;5.27;2.20;;;;;;;;;;4953108;28;20650;-78
2022/08/29 02:14:03;;;;;;;7.10;2.00;;;;;;;;;;4955972;28;20376;-79
2022/08/29 02:16:32;;;;;;;5.73;1.83;;;;;;;;;;4956233;28;20241;-77
2022/08/29 02:19:00;;;;;;;8.20;2.40;;;;;;;;;;4951277;28;20202;-77
2022/08/29 02:21:29;;;;;;;6.23;2.10;;;;;;;;;;4953080;28;20211;-77
2022/08/29 02:23:57;;;;;;;7.90;2.23;;;;;;;;;;4953640;28;20237;-78
2022/08/29 02:26:28;;;;;;;5.90;2.17;;;;;;;;;;4954905;28;20230;-80
2022/08/29 02:28:56;;;;;;;4.83;2.17;;;;;;;;;;4951463;28;20297;-77
2022/08/29 02:31:24;;;;;;;5.70;2.47;;;;;;;;;;4954513;28;20221;-78
2022/08/29 02:33:53;;;;;;;6.67;1.83;;;;;;;;;;4956742;28;20242;-78
2022/08/29 02:36:21;;;;;;;5.03;2.20;;;;;;;;;;4953429;28;20233;-79
2022/08/29 02:38:48;;;;;;;5.87;2.00;;;;;;;;;;4951730;28;20699;-78
2022/08/29 02:41:15;;;;;;;6.20;2.00;;;;;;;;;;4950740;28;20199;-80
2022/08/29 02:43:43;;;;;;;7.07;2.50;;;;;;;;;;4953079;28;20214;-80
2022/08/29 02:46:13;;;;;;;6.37;2.10;;;;;;;;;;4950252;28;20727;-78
2022/08/29 02:48:40;;;;;;;4.97;2.50;;;;;;;;;;4952404;28;20306;-79
2022/08/29 02:51:09;;;;;;;5.73;1.80;;;;;;;;;;4953029;28;20293;-78
2022/08/29 02:53:36;;;;;;;4.80;1.90;;;;;;;;;;4954732;28;20850;-79
2022/08/29 02:56:04;;;;;;;5.27;1.97;;;;;;;;;;4953603;28;20230;-79
2022/08/29 02:58:32;;;;;;;7.40;2.27;;;;;;;;;;4953432;28;20238;-79
2022/08/29 03:01:00;;;;;;;7.93;2.03;;;;;;;;;;4955396;28;20696;-79
2022/08/29 03:03:27;;;;;;;6.93;2.30;;;;;;;;;;4954572;28;20628;-79
2022/08/29 03:05:55;;;;;;;3.80;2.00;;;;;;;;;;4956765;28;20252;-79
2022/08/29 03:08:24;;;;;;;5.83;2.20;;;;;;;;;;4954433;28;20270;-79
2022/08/29 03:10:51;;;;;;;3.20;2.20;;;;;;;;;;4953042;28;20210;-79
2022/08/29 03:13:19;;;;;;;9.93;2.20;;;;;;;;;;4950771;28;20282;-79
2022/08/29 03:15:46;;;;;;;4.73;1.83;;;;;;;;;;4949810;28;20844;-79
2022/08/29 03:18:14;;;;;;;7.37;2.10;;;;;;;;;;4953719;28;20210;-79
2022/08/29 03:20:42;;;;;;;5.67;2.40;;;;;;;;;;4953526;28;20213;-79
2022/08/29 03:23:09;;;;;;;4.90;2.10;;;;;;;;;;4953014;28;20213;-78
2022/08/29 03:25:38;;;;;;;8.93;2.27;;;;;;;;;;4952778;28;20210;-77
2022/08/29 03:28:06;;;;;;;8.50;2.00;;;;;;;;;;4948822;28;20309;-79
2022/08/29 03:30:34;;;;;;;7.23;2.40;;;;;;;;;;4949766;28;21111;-78
2022/08/29 03:33:03;;;;;;;4.87;2.30;;;;;;;;;;4952125;28;20218;-78
2022/08/29 03:35:30;;;;;;;5.80;2.37;;;;;;;;;;4956877;28;20590;-78
2022/08/29 03:37:58;;;;;;;7.47;2.43;;;;;;;;;;4953315;28;20241;-79
2022/08/29 03:40:25;;;;;;;6.80;2.13;;;;;;;;;;4950679;28;20569;-79
2022/08/29 03:42:55;;;;;;;8.13;2.73;;;;;;;;;;4947614;28;20211;-79
2022/08/29 03:45:24;;;;;;;7.40;2.67;;;;;;;;;;4952111;28;20296;-78
2022/08/29 03:47:52;;;;;;;7.10;2.23;;;;;;;;;;4952745;28;20581;-79
2022/08/29 03:50:20;;;;;;;4.63;2.40;;;;;;;;;;4952986;28;20210;-78
2022/08/29 03:52:48;;;;;;;7.80;2.47;;;;;;;;;;4951602;28;20265;-79
2022/08/29 03:55:15;;;;;;;8.20;2.53;;;;;;;;;;4947641;28;20649;-79
2022/08/29 03:57:43;;;;;;;8.73;2.23;;;;;;;;;;4949667;28;20230;-78
2022/08/29 04:00:15;;;;;;;6.50;2.53;;;;;;;;;;4953810;28;20665;-78
2022/08/29 04:02:42;;;;;;;5.43;2.40;;;;;;;;;;4951191;28;20301;-78
2022/08/29 04:05:10;;;;;;;7.13;2.70;;;;;;;;;;4952979;28;20207;-78
2022/08/29 04:07:39;;;;;;;7.13;2.63;;;;;;;;;;4952067;28;20230;-80
2022/08/29 04:10:08;;;;;;;4.23;2.53;;;;;;;;;;4952708;28;20210;-77
2022/08/29 04:12:35;;;;;;;6.83;2.40;;;;;;;;;;4951126;28;20694;-79
2022/08/29 04:15:02;;;;;;;8.67;2.43;;;;;;;;;;4951248;28;20665;-78
2022/08/29 04:17:31;;;;;;;7.30;2.40;;;;;;;;;;4949408;28;20254;-78
2022/08/29 04:19:58;;;;;;;7.83;2.20;;;;;;;;;;4952575;28;20298;-79
2022/08/29 04:22:25;;;;;;;7.97;2.77;;;;;;;;;;4952704;28;20677;-79
2022/08/29 04:24:53;;;;;;;6.90;2.73;;;;;;;;;;4955384;28;20217;-78
2022/08/29 04:27:20;;;;;;;6.03;2.50;;;;;;;;;;4951416;28;20276;-78
2022/08/29 04:29:47;;;;;;;8.27;2.60;;;;;;;;;;4949045;29;20314;-77
2022/08/29 04:32:15;;;;;;;6.67;2.57;;;;;;;;;;4948814;29;20222;-78
2022/08/29 04:34:44;;;;;;;5.90;2.73;;;;;;;;;;4950519;28;20207;-78
2022/08/29 04:37:11;;;;;;;5.10;2.50;;;;;;;;;;4952926;28;20787;-78
2022/08/29 04:39:38;;;;;;;8.03;2.80;;;;;;;;;;4953488;28;20262;-78
2022/08/29 04:42:06;;;;;;;6.20;2.80;;;;;;;;;;4951036;28;20289;-76
2022/08/29 04:44:34;;;;;;;9.93;2.83;;;;;;;;;;4954082;28;20198;-76
2022/08/29 04:47:01;;;;;;;5.40;2.70;;;;;;;;;;4951415;28;20300;-76
2022/08/29 04:49:28;;;;;;;8.40;2.83;;;;;;;;;;4951317;28;20288;-76
2022/08/29 04:51:56;;;;;;;9.67;2.60;;;;;;;;;;4951053;28;20679;-76
2022/08/29 04:54:24;;;;;;;7.00;2.73;;;;;;;;;;4952447;28;20209;-80
2022/08/29 04:56:51;;;;;;;6.73;2.93;;;;;;;;;;4946073;28;20218;-76
2022/08/29 04:59:21;;;;;;;10.40;2.90;;;;;;;;;;4951415;28;20292;-76
2022/08/29 05:01:48;;;;;;;8.37;3.00;;;;;;;;;;4951018;28;20309;-76
2022/08/29 05:04:15;;;;;;;5.13;2.53;;;;;;;;;;4954403;28;20289;-77
2022/08/29 05:06:43;;;;;;;6.17;2.50;;;;;;;;;;4951697;28;20318;-77
2022/08/29 05:09:11;;;;;;;6.20;2.80;;;;;;;;;;4953577;28;20206;-77
2022/08/29 05:11:40;;;;;;;12.10;3.50;;;;;;;;;;4948499;29;20297;-76
2022/08/29 05:14:09;;;;;;;8.50;3.17;;;;;;;;;;4948237;28;20621;-76
2022/08/29 05:16:37;;;;;;;10.97;3.87;;;;;;;;;;4950970;28;20317;-77
2022/08/29 05:19:07;;;;;;;7.63;3.23;;;;;;;;;;4951107;28;20242;-77
2022/08/29 05:21:37;;;;;;;10.50;2.80;;;;;;;;;;4958082;28;20291;-76
2022/08/29 05:24:07;;;;;;;7.63;2.90;;;;;;;;;;4952030;28;20202;-77
2022/08/29 05:26:37;;;;;;;5.23;2.57;;;;;;;;;;4950106;28;20771;-77
2022/08/29 05:29:04;;;;;;;10.47;2.60;;;;;;;;;;4950768;28;20293;-76
2022/08/29 05:31:31;;;;;;;10.67;3.00;;;;;;;;;;4947771;28;20207;-77
2022/08/29 05:33:59;;;;;;;7.13;2.87;;;;;;;;;;4951485;28;20301;-76
2022/08/29 05:36:26;;;;;;;9.63;2.43;;;;;;;;;;4949202;28;20226;-76
2022/08/29 05:38:54;;;;;;;7.17;2.83;;;;;;;;;;4955403;28;20213;-77
2022/08/29 05:41:23;;;;;;;10.77;2.93;;;;;;;;;;4954484;28;20238;-76
2022/08/29 05:43:53;;;;;;;7.60;2.77;;;;;;;;;;4955444;28;20203;-77
2022/08/29 05:46:20;;;;;;;8.80;3.43;;;;;;;;;;4952382;28;20313;-77
2022/08/29 05:48:47;;;;;;;10.83;3.80;;;;;;;;;;4953006;28;20234;-76
2022/08/29 05:51:16;;;;;;;10.30;2.63;;;;;;;;;;4949503;28;20229;-77
2022/08/29 05:53:43;;;;;;;8.13;2.73;;;;;;;;;;4951349;28;20222;-77
2022/08/29 05:56:12;;;;;;;9.67;2.77;;;;;;;;;;4946839;29;20599;-76
2022/08/29 05:58:39;;;;;;;14.53;3.07;;;;;;;;;;4945695;28;20214;-76
2022/08/29 06:01:08;;;;;;;7.17;2.93;;;;;;;;;;4948722;28;20224;-77
2022/08/29 06:03:35;;;;;;;11.53;2.77;;;;;;;;;;4949514;29;20293;-77
2022/08/29 06:06:02;;;;;;;8.20;2.60;;;;;;;;;;4950679;29;20670;-77
2022/08/29 06:08:29;;;;;;;8.13;2.93;;;;;;;;;;4949017;28;20262;-77
2022/08/29 06:10:56;;;;;;;8.20;3.10;;;;;;;;;;4949013;29;20207;-78
2022/08/29 06:13:23;;;;;;;7.77;3.00;;;;;;;;;;4950558;29;20301;-77
2022/08/29 06:15:51;;;;;;;8.03;2.80;;;;;;;;;;4949345;29;20713;-76
2022/08/29 06:18:19;;;;;;;5.60;2.87;;;;;;;;;;4949353;28;20199;-78
2022/08/29 06:20:47;;;;;;;7.97;2.83;;;;;;;;;;4948058;29;20225;-77
2022/08/29 06:23:15;;;;;;;7.47;2.90;;;;;;;;;;4950116;28;20236;-78
2022/08/29 06:25:42;;;;;;;11.57;3.10;;;;;;;;;;4943836;28;20236;-77
2022/08/29 06:28:09;;;;;;;10.63;3.40;;;;;;;;;;4947331;29;20310;-77
2022/08/29 06:30:38;;;;;;;12.93;3.17;;;;;;;;;;4948826;29;20222;-77
2022/08/29 06:33:07;;;;;;;11.50;2.97;;;;;;;;;;4946489;28;20207;-77
2022/08/29 06:35:40;;;;;;;9.87;3.07;;;;;;;;;;4944993;29;20238;-77
2022/08/29 06:38:08;;;;;;;8.93;3.00;;;;;;;;;;4946872;29;20210;-77
2022/08/29 06:40:36;;;;;;;10.57;3.17;;;;;;;;;;4952473;29;20572;-78
2022/08/29 06:43:03;;;;;;;6.97;2.43;;;;;;;;;;4948385;28;20209;-78
2022/08/29 06:45:30;;;;;;;12.70;3.33;;;;;;;;;;4951344;28;20229;-78
2022/08/29 06:47:57;;;;;;;8.77;3.10;;;;;;;;;;4946976;28;20325;-78
2022/08/29 06:50:24;;;;;;;7.30;2.70;;;;;;;;;;4950721;29;20321;-78
2022/08/29 06:52:53;;;;;;;9.47;3.20;;;;;;;;;;4951536;29;20656;-78
2022/08/29 06:55:20;;;;;;;9.97;3.00;;;;;;;;;;4950227;29;20701;-78
2022/08/29 06:57:47;;;;;;;10.50;2.90;;;;;;;;;;4949763;29;20230;-78
2022/08/29 07:00:15;;;;;;;7.23;2.50;;;;;;;;;;4946147;28;20244;-78
2022/08/29 07:02:43;;;;;;;7.50;2.47;;;;;;;;;;4949604;28;20211;-78
2022/08/29 07:05:10;;;;;;;11.70;3.20;;;;;;;;;;4952057;28;20202;-78
2022/08/29 07:07:39;;;;;;;9.77;2.70;;;;;;;;;;4948580;28;20227;-77
2022/08/29 07:10:11;;;;;;;13.17;3.00;;;;;;;;;;4949861;29;20285;-78
2022/08/29 07:12:38;;;;;;;8.77;2.93;;;;;;;;;;4949399;28;20215;-78
2022/08/29 07:15:06;;;;;;;11.20;3.07;;;;;;;;;;4948643;28;21126;-78
2022/08/29 07:17:34;;;;;;;14.30;2.97;;;;;;;;;;4952680;28;20225;-77
2022/08/29 07:20:01;;;;;;;9.40;2.93;;;;;;;;;;4947486;29;20619;-78
2022/08/29 07:22:28;;;;;;;15.20;3.13;;;;;;;;;;4952053;29;20198;-77
2022/08/29 07:24:56;;;;;;;14.90;3.10;;;;;;;;;;4950972;28;20214;-77
2022/08/29 07:27:24;;;;;;;9.80;2.87;;;;;;;;;;4954804;28;20312;-78
2022/08/29 07:29:52;;;;;;;9.07;3.17;;;;;;;;;;4950664;29;20309;-78
2022/08/29 07:32:19;;;;;;;11.10;3.17;;;;;;;;;;4952263;29;20269;-78
2022/08/29 07:34:46;;;;;;;10.13;3.00;;;;;;;;;;4951220;28;20642;-77
2022/08/29 07:37:13;;;;;;;9.63;2.87;;;;;;;;;;4950736;28;20303;-78
2022/08/29 07:39:40;;;;;;;7.37;3.20;;;;;;;;;;4948830;28;20293;-78
2022/08/29 07:42:08;;;;;;;12.13;2.80;;;;;;;;;;4948861;29;20206;-77
2022/08/29 07:44:36;;;;;;;12.17;3.00;;;;;;;;;;4947141;29;20269;-78
2022/08/29 07:47:04;;;;;;;9.10;3.33;;;;;;;;;;4948231;28;20253;-78
2022/08/29 07:49:32;;;;;;;7.90;2.87;;;;;;;;;;4944509;29;20717;-78
2022/08/29 07:51:59;;;;;;;9.07;2.83;;;;;;;;;;4947311;29;20290;-78
2022/08/29 07:54:27;;;;;;;7.93;3.23;;;;;;;;;;4944616;29;20341;-78
2022/08/29 07:56:54;;;;;;;9.37;2.90;;;;;;;;;;4949974;29;20605;-78
2022/08/29 07:59:21;;;;;;;10.63;2.80;;;;;;;;;;4950927;29;20200;-78
2022/08/29 08:01:50;;;;;;;8.23;3.00;;;;;;;;;;4949321;28;20690;-78
2022/08/29 08:04:17;;;;;;;9.30;2.97;;;;;;;;;;4948946;29;20265;-78
2022/08/29 08:06:44;;;;;;;12.20;3.00;;;;;;;;;;4950036;29;20326;-78
2022/08/29 08:09:14;;;;;;;11.07;3.20;;;;;;;;;;4951979;29;20613;-79
2022/08/29 08:11:41;;;;;;;7.23;2.93;;;;;;;;;;4949902;29;20203;-77
2022/08/29 08:14:09;;;;;;;7.57;2.63;;;;;;;;;;4948945;28;20302;-78
2022/08/29 08:19:19;;;;;;;7.37;2.80;;;;;;;;;;4941385;28;20212;-79
2022/08/29 08:21:46;;;;;;;6.23;2.90;;;;;;;;;;4954378;28;20214;-78
2022/08/29 08:24:13;;;;;;;11.57;3.20;;;;;;;;;;4948599;29;20261;-78
2022/08/29 08:26:43;;;;;;;9.67;3.17;;;;;;;;;;4947698;28;20720;-78
2022/08/29 08:29:11;;;;;;;11.87;3.30;;;;;;;;;;4948277;28;20234;-76
2022/08/29 08:31:42;;;;;;;9.33;3.33;;;;;;;;;;4944822;28;20254;-76
2022/08/29 08:34:14;;;;;;;8.33;2.80;;;;;;;;;;4944151;28;20233;-76
2022/08/29 08:36:43;;;;;;;7.43;2.57;;;;;;;;;;4945449;28;20276;-77
2022/08/29 08:39:12;;;;;;;7.53;2.90;;;;;;;;;;4947781;28;20289;-76
2022/08/29 08:41:45;;;;;;;13.33;2.90;;;;;;;;;;4946315;28;20206;-77
2022/08/29 08:44:17;;;;;;;12.30;3.17;;;;;;;;;;4948849;29;20208;-77
2022/08/29 08:46:46;;;;;;;10.97;2.87;;;;;;;;;;4942708;28;20270;-77
2022/08/29 08:49:15;;;;;;;10.37;3.10;;;;;;;;;;4949847;28;20226;-77
2022/08/29 08:51:46;;;;;;;6.93;3.07;;;;;;;;;;4944330;29;20220;-76
2022/08/29 08:54:16;;;;;;;7.10;2.63;;;;;;;;;;4945222;29;20222;-77
2022/08/29 08:56:45;;;;;;;8.57;2.83;;;;;;;;;;4943278;28;20329;-77
2022/08/29 08:59:15;;;;;;;10.30;3.00;;;;;;;;;;4949041;29;20202;-77
2022/08/29 09:01:44;;;;;;;11.53;2.90;;;;;;;;;;4949742;29;20218;-77
2022/08/29 09:04:32;;;;;;;6.87;2.83;;;;;;;;;;4948976;28;20210;-77
2022/08/29 09:07:07;;;;;;;7.37;2.43;;;;;;;;;;4953108;28;20254;-77
2022/08/29 09:09:39;;;;;;;6.43;2.60;;;;;;;;;;4953408;29;20316;-77
2022/08/29 09:12:13;;;;;;;5.83;2.13;;;;;;;;;;4952910;29;20572;-78
2022/08/29 09:14:45;;;;;;;5.17;2.60;;;;;;;;;;4953601;28;20234;-78
2022/08/29 09:17:14;;;;;;;10.07;2.87;;;;;;;;;;4949911;29;20261;-77
2022/08/29 09:19:41;;;;;;;5.03;1.93;;;;;;;;;;4950880;29;20203;-78
2022/08/29 09:22:14;;;;;;;5.13;2.20;;;;;;;;;;4948959;28;20211;-77
2022/08/29 09:24:45;;;;;;;7.57;1.90;;;;;;;;;;4944451;29;20689;-76
2022/08/29 09:27:17;;;;;;;9.03;2.60;;;;;;;;;;4943285;28;20285;-77
2022/08/29 09:29:45;;;;;;;5.97;2.23;;;;;;;;;;4943446;28;20226;-76
2022/08/29 09:32:13;;;;;;;7.87;2.43;;;;;;;;;;4949244;28;20206;-77
2022/08/29 09:34:43;;;;;;;10.83;2.33;;;;;;;;;;4944593;29;20298;-77
2022/08/29 09:37:21;;;;;;;6.10;1.93;;;;;;;;;;4945495;28;20720;-76
2022/08/29 09:39:53;;;;;;;5.23;2.40;;;;;;;;;;4946177;29;20301;-76
2022/08/29 09:42:21;;;;;;;10.13;2.40;;;;;;;;;;4945294;29;20594;-76
2022/08/29 09:44:53;;;;;;;4.33;1.87;;;;;;;;;;4947246;29;20210;-76
2022/08/29 09:47:22;;;;;;;4.73;1.83;;;;;;;;;;4953510;29;20236;-76
2022/08/29 09:50:01;;;;;;;5.13;1.90;;;;;;;;;;4950783;28;20261;-78
2022/08/29 09:52:30;;;;;;;6.30;1.83;;;;;;;;;;4947295;29;20198;-78
2022/08/29 09:54:57;;;;;;;7.97;1.83;;;;;;;;;;4947333;29;20285;-76
2022/08/29 09:57:30;;;;;;;8.73;2.60;;;;;;;;;;4947221;29;20226;-76
2022/08/29 10:00:12;;;;;;;7.13;1.77;;;;;;;;;;4948539;28;20218;-75
2022/08/29 10:02:48;;;;;;;6.20;1.90;;;;;;;;;;4952794;28;20234;-78
2022/08/29 10:05:43;;;;;;;6.40;2.07;;;;;;;;;;4949320;28;20576;-76
2022/08/29 10:08:33;;;;;;;5.53;2.23;;;;;;;;;;4924547;29;20345;-76
2022/08/29 10:11:05;;;;;;;8.27;2.20;;;;;;;;;;4955052;29;20230;-76
2022/08/29 10:13:35;;;;;;;5.60;2.07;;;;;;;;;;4955415;28;20732;-77
2022/08/29 10:16:08;;;;;;;7.10;1.70;;;;;;;;;;4953107;28;20673;-78
2022/08/29 10:18:41;;;;;;;4.23;1.63;;;;;;;;;;4951131;29;20190;-78
2022/08/29 10:21:16;;;;;;;8.17;1.83;;;;;;;;;;4952483;29;20209;-77
2022/08/29 10:23:53;;;;;;;8.03;2.20;;;;;;;;;;4950438;29;20220;-77
2022/08/29 10:26:33;;;;;;;8.10;2.10;;;;;;;;;;4952511;28;20237;-77
2022/08/29 10:29:03;;;;;;;6.60;2.00;;;;;;;;;;4951639;28;20321;-77
2022/08/29 10:31:40;;;;;;;7.27;1.80;;;;;;;;;;4950049;28;20294;-79
2022/08/29 10:34:17;;;;;;;6.80;1.80;;;;;;;;;;4952190;29;20209;-78
2022/08/29 10:36:51;;;;;;;4.50;1.60;;;;;;;;;;4946172;28;20658;-77
2022/08/29 10:39:22;;;;;;;4.10;1.70;;;;;;;;;;4949310;28;20212;-78
2022/08/29 10:41:56;;;;;;;8.03;2.20;;;;;;;;;;4947766;28;20954;-78
2022/08/29 10:44:31;;;;;;;7.57;2.23;;;;;;;;;;4949024;28;20202;-77
2022/08/29 10:47:04;;;;;;;4.27;1.73;;;;;;;;;;4950054;29;20245;-77
2022/08/29 10:49:40;;;;;;;4.03;1.90;;;;;;;;;;4947046;28;20240;-76
2022/08/29 10:52:11;;;;;;;3.30;1.90;;;;;;;;;;4948401;28;20219;-76
2022/08/29 10:54:44;;;;;;;5.77;2.27;;;;;;;;;;4947235;29;20203;-76
2022/08/29 10:57:19;;;;;;;7.63;2.13;;;;;;;;;;4946301;29;20640;-77
2022/08/29 10:59:56;;;;;;;7.17;2.27;;;;;;;;;;4947169;29;20203;-77
2022/08/29 11:02:28;;;;;;;8.00;2.23;;;;;;;;;;4949169;29;20217;-76
2022/08/29 11:04:56;;;;;;;7.40;2.20;;;;;;;;;;4945606;28;20206;-76
2022/08/29 11:07:29;;;;;;;5.27;2.20;;;;;;;;;;4948318;28;20266;-76
2022/08/29 11:09:58;;;;;;;10.87;2.10;;;;;;;;;;4947202;29;20317;-76
2022/08/29 11:12:32;;;;;;;5.63;1.70;;;;;;;;;;4946706;29;20206;-77
2022/08/29 11:15:01;;;;;;;9.00;1.97;;;;;;;;;;4948959;28;20744;-76
2022/08/29 11:17:31;;;;;;;9.03;2.20;;;;;;;;;;4946418;28;20218;-75
2022/08/29 11:20:00;;;;;;;6.93;1.93;;;;;;;;;;4946978;28;20202;-76
2022/08/29 11:22:31;;;;;;;6.43;1.73;;;;;;;;;;4943762;29;20682;-76
2022/08/29 11:25:02;;;;;;;5.53;2.23;;;;;;;;;;4947252;28;20203;-75
2022/08/29 11:27:35;;;;;;;6.90;2.13;;;;;;;;;;4948669;28;20230;-77
2022/08/29 11:30:04;;;;;;;7.53;1.90;;;;;;;;;;4948999;29;20227;-76
2022/08/29 11:32:35;;;;;;;6.70;1.93;;;;;;;;;;4943335;28;20206;-77
2022/08/29 11:35:08;;;;;;;4.90;1.90;;;;;;;;;;4946190;28;20285;-77
2022/08/29 11:37:54;;;;;;;7.33;2.13;;;;;;;;;;4947452;29;20317;-77
2022/08/29 11:40:29;;;;;;;3.97;2.10;;;;;;;;;;4948117;29;20212;-77
2022/08/29 11:43:00;;;;;;;6.80;1.83;;;;;;;;;;4944918;28;20211;-76
2022/08/29 11:45:29;;;;;;;5.17;1.83;;;;;;;;;;4946969;28;20588;-77
2022/08/29 11:48:02;;;;;;;9.63;1.70;;;;;;;;;;4949323;28;20214;-76
2022/08/29 11:50:32;;;;;;;3.87;1.67;;;;;;;;;;4944791;28;20237;-76
2022/08/29 11:53:01;;;;;;;8.00;1.93;;;;;;;;;;4945906;28;20214;-77
2022/08/29 11:55:31;;;;;;;5.80;1.90;;;;;;;;;;4945167;28;20294;-77
2022/08/29 11:58:01;;;;;;;5.57;1.87;;;;;;;;;;4947039;28;20686;-77
2022/08/29 12:00:35;;;;;;;4.47;1.90;;;;;;;;;;4945192;29;20203;-76
2022/08/29 12:03:25;;;;;;;4.77;1.70;;;;;;;;;;4944950;29;20210;-76
2022/08/29 12:05:59;;;;;;;4.93;1.63;;;;;;;;;;4950169;28;20226;-77
2022/08/29 12:08:32;;;;;;;7.97;2.13;;;;;;;;;;4948626;28;20252;-77
2022/08/29 12:11:01;;;;;;;7.00;2.00;;;;;;;;;;4947713;28;20725;-75
2022/08/29 12:13:59;;;;;;;5.17;1.53;;;;;;;;;;4948132;29;20302;-77
2022/08/29 12:16:52;;;;;;;6.40;1.40;;;;;;;;;;4944862;29;20250;-77
2022/08/29 12:19:38;;;;;;;3.70;1.70;;;;;;;;;;4944107;29;20559;-77
2022/08/29 12:22:07;;;;;;;4.03;1.60;;;;;;;;;;4950042;28;20598;-76
2022/08/29 12:24:40;;;;;;;8.63;1.80;;;;;;;;;;4945696;29;20198;-76
2022/08/29 12:27:22;;;;;;;5.47;1.90;;;;;;;;;;4945778;28;20230;-77
2022/08/29 12:29:53;;;;;;;8.13;1.90;;;;;;;;;;4946848;28;20270;-77
2022/08/29 12:32:26;;;;;;;6.30;1.80;;;;;;;;;;4943265;28;20199;-76
2022/08/29 12:35:02;;;;;;;5.27;1.80;;;;;;;;;;4946310;29;20231;-76
2022/08/29 12:37:35;;;;;;;6.27;1.80;;;;;;;;;;4946584;28;20809;-77
2022/08/29 12:40:14;;;;;;;3.53;1.33;;;;;;;;;;4947364;28;20259;-76
2022/08/29 12:42:46;;;;;;;6.43;2.00;;;;;;;;;;4945858;29;20237;-76
2022/08/29 12:45:16;;;;;;;7.37;1.70;;;;;;;;;;4946217;28;20234;-76
2022/08/29 12:47:46;;;;;;;6.57;1.70;;;;;;;;;;4946466;28;20266;-77
2022/08/29 12:50:16;;;;;;;6.00;2.00;;;;;;;;;;4946288;28;20503;-76
2022/08/29 12:52:44;;;;;;;3.33;1.70;;;;;;;;;;4943688;28;20293;-76
2022/08/29 12:55:19;;;;;;;5.77;2.10;;;;;;;;;;4949754;28;20516;-76
2022/08/29 12:57:47;;;;;;;3.87;1.67;;;;;;;;;;4942167;28;20309;-76
2022/08/29 13:00:18;;;;;;;5.83;1.70;;;;;;;;;;4948340;28;20210;-77
2022/08/29 13:03:00;;;;;;;4.10;1.57;;;;;;;;;;4944454;28;20207;-77
2022/08/29 13:05:28;;;;;;;6.07;1.80;;;;;;;;;;4950534;28;20592;-77
2022/08/29 13:07:57;;;;;;;7.23;1.70;;;;;;;;;;4952460;28;20305;-75
2022/08/29 13:10:25;;;;;;;5.77;1.83;;;;;;;;;;4951046;28;20316;-76
2022/08/29 13:12:55;;;;;;;4.20;1.70;;;;;;;;;;4953270;28;20210;-77
2022/08/29 13:15:25;;;;;;;3.07;1.60;;;;;;;;;;4955241;28;20288;-77
2022/08/29 13:17:54;;;;;;;4.27;2.00;;;;;;;;;;4950737;28;20206;-77
2022/08/29 13:20:44;;;;;;;4.70;1.90;;;;;;;;;;4952238;28;20229;-77
2022/08/29 13:23:24;;;;;;;5.97;1.80;;;;;;;;;;4949648;28;20759;-77
2022/08/29 13:25:53;;;;;;;8.37;1.60;;;;;;;;;;4951387;28;20765;-77
2022/08/29 13:28:27;;;;;;;2.93;1.67;;;;;;;;;;4956562;28;20197;-77
2022/08/29 13:31:09;;;;;;;4.93;1.80;;;;;;;;;;4955089;28;20261;-77
2022/08/29 13:33:37;;;;;;;6.87;1.80;;;;;;;;;;4957560;28;20214;-76
2022/08/29 13:36:19;;;;;;;6.50;1.70;;;;;;;;;;4957691;28;20219;-78
2022/08/29 13:39:08;;;;;;;3.57;1.73;;;;;;;;;;4954888;28;20234;-78
2022/08/29 13:41:37;;;;;;;6.07;1.57;;;;;;;;;;4955455;29;20271;-77
2022/08/29 13:44:10;;;;;;;8.27;1.40;;;;;;;;;;4951220;29;20199;-78
2022/08/29 13:46:39;;;;;;;3.73;1.40;;;;;;;;;;4950884;28;20325;-77
2022/08/29 13:49:08;;;;;;;4.50;1.53;;;;;;;;;;4956709;28;20214;-78
2022/08/29 13:51:42;;;;;;;4.60;1.40;;;;;;;;;;4955077;29;20227;-78
2022/08/29 13:54:12;;;;;;;7.60;1.80;;;;;;;;;;4959718;28;20197;-77
2022/08/29 13:56:43;;;;;;;4.70;1.50;;;;;;;;;;4956135;28;20697;-77
2022/08/29 13:59:11;;;;;;;3.27;1.50;;;;;;;;;;4958547;28;20207;-77
2022/08/29 14:01:42;;;;;;;5.00;1.43;;;;;;;;;;4957050;28;20211;-77
2022/08/29 14:04:09;;;;;;;3.60;1.50;;;;;;;;;;4952461;28;20210;-76
2022/08/29 14:06:36;;;;;;;2.90;1.40;;;;;;;;;;4955205;28;21189;-76
2022/08/29 14:09:05;;;;;;;3.27;1.43;;;;;;;;;;4948066;28;20657;-76
2022/08/29 14:11:32;;;;;;;2.83;1.30;;;;;;;;;;4948415;29;20341;-76
2022/08/29 14:14:01;;;;;;;2.97;1.40;;;;;;;;;;4954968;28;20221;-77
2022/08/29 14:16:28;;;;;;;6.80;1.53;;;;;;;;;;4949631;28;20427;-76
2022/08/29 14:18:55;;;;;;;7.37;1.63;;;;;;;;;;4950427;28;20353;-76
2022/08/29 14:21:23;;;;;;;2.80;1.50;;;;;;;;;;4948039;28;20595;-77
2022/08/29 14:23:56;;;;;;;4.23;1.57;;;;;;;;;;4951552;28;20205;-78
2022/08/29 14:26:24;;;;;;;3.13;1.03;;;;;;;;;;4952336;28;20301;-77
2022/08/29 14:28:52;;;;;;;4.03;1.60;;;;;;;;;;4946447;28;20214;-76
2022/08/29 14:31:20;;;;;;;5.07;1.43;;;;;;;;;;4944517;28;20233;-75
2022/08/29 14:33:47;;;;;;;5.77;1.47;;;;;;;;;;4946052;28;20213;-76
2022/08/29 14:36:15;;;;;;;2.47;1.33;;;;;;;;;;4946925;28;20228;-76
2022/08/29 14:38:42;;;;;;;3.63;1.70;;;;;;;;;;4949219;29;20233;-75
2022/08/29 14:41:11;;;;;;;2.97;1.40;;;;;;;;;;4950249;28;20213;-78
2022/08/29 14:43:38;;;;;;;3.23;1.20;;;;;;;;;;4949384;28;20210;-76
2022/08/29 14:46:06;;;;;;;5.40;1.40;;;;;;;;;;4944944;28;20730;-76
2022/08/29 14:48:36;;;;;;;3.23;1.60;;;;;;;;;;4947160;29;20217;-75
2022/08/29 14:51:06;;;;;;;3.73;1.43;;;;;;;;;;4944592;28;20218;-75
2022/08/29 14:53:39;;;;;;;12.47;7.43;;;;;;;;;;4947890;28;20211;-76
2022/08/29 14:56:08;;;;;;;59.73;30.27;;;;;;;;;;4948440;28;20273;-76
2022/08/29 14:58:35;;;;;;;36.63;20.07;;;;;;;;;;4949976;28;20208;-75
2022/08/29 15:01:03;;;;;;;7.50;3.17;;;;;;;;;;4948136;28;20236;-78
2022/08/29 15:03:31;;;;;;;3.50;1.60;;;;;;;;;;4950303;28;20207;-77